Time;durP1;ratioP1;P1;durP2;ratioP2;P2;SDS_P1;SDS_P2;PMS_P1;PMS_P2;Temp;Humidity;BMP_temperature;BMP_pressure;BME280_temperature;BME280_humidity;BME280_pressure;Samples;Min_cycle;Max_cycle;Signal;HPM_P1;HPM_P2
2022/03/04 00:02:23;;;;;;;32.03;12.50;;;-0.60;99.90;;;;;;5082221;28;20567;-82
2022/03/04 00:04:48;;;;;;;33.28;12.23;;;-0.50;99.90;;;;;;5090137;28;20540;-80
2022/03/04 00:07:14;;;;;;;38.65;13.57;;;-0.40;99.90;;;;;;5091541;28;20040;-81
2022/03/04 00:09:39;;;;;;;31.48;13.23;;;-0.40;99.90;;;;;;5092090;28;20063;-81
2022/03/04 00:12:08;;;;;;;36.90;13.75;;;-0.40;99.90;;;;;;5092694;28;20072;-81
2022/03/04 00:14:34;;;;;;;35.55;13.63;;;-0.40;99.90;;;;;;5091672;28;20041;-81
2022/03/04 00:16:59;;;;;;;31.95;12.68;;;-0.50;99.90;;;;;;5092036;28;20029;-83
2022/03/04 00:19:25;;;;;;;41.92;16.40;;;-0.60;99.90;;;;;;5091396;28;20024;-83
2022/03/04 00:21:51;;;;;;;37.28;13.68;;;-0.50;99.90;;;;;;5092421;28;20024;-82
2022/03/04 00:24:21;;;;;;;33.55;13.13;;;-0.60;99.90;;;;;;5074344;28;20052;-80
2022/03/04 00:26:48;;;;;;;35.85;14.45;;;-0.50;99.90;;;;;;5073661;28;20055;-80
2022/03/04 00:29:14;;;;;;;33.88;13.88;;;-0.40;99.90;;;;;;5093654;28;20041;-81
2022/03/04 00:31:40;;;;;;;34.15;13.70;;;-0.50;99.90;;;;;;5069856;28;20120;-80
2022/03/04 00:34:07;;;;;;;34.67;13.73;;;-0.50;99.90;;;;;;5054428;28;20051;-81
2022/03/04 00:36:34;;;;;;;35.47;14.57;;;-0.50;99.90;;;;;;5054246;28;20522;-80
2022/03/04 00:38:59;;;;;;;28.45;12.23;;;-0.50;99.90;;;;;;5068230;28;20041;-80
2022/03/04 00:41:25;;;;;;;35.13;14.45;;;-0.60;99.90;;;;;;5091168;28;20371;-80
2022/03/04 00:43:52;;;;;;;32.55;13.63;;;-0.60;99.90;;;;;;5088489;28;20495;-81
2022/03/04 00:46:18;;;;;;;36.60;13.23;;;-0.60;99.90;;;;;;5080531;28;20048;-81
2022/03/04 00:48:45;;;;;;;38.78;13.05;;;-0.70;99.90;;;;;;5078428;28;20456;-81
2022/03/04 00:51:14;;;;;;;36.85;14.20;;;-0.70;99.90;;;;;;5078105;28;20052;-81
2022/03/04 00:53:41;;;;;;;39.50;15.68;;;-0.30;99.90;;;;;;5077537;28;20048;-81
2022/03/04 00:56:08;;;;;;;37.45;15.13;;;-0.80;99.90;;;;;;5059847;28;20505;-81
2022/03/04 00:58:35;;;;;;;40.60;14.30;;;-0.90;99.90;;;;;;5076974;28;20040;-80
2022/03/04 01:01:01;;;;;;;40.65;14.05;;;-0.80;99.90;;;;;;5076991;28;20051;-80
2022/03/04 01:03:26;;;;;;;36.25;15.25;;;-0.90;99.90;;;;;;5077635;28;20086;-81
2022/03/04 01:05:52;;;;;;;43.80;15.90;;;-0.80;99.90;;;;;;5077210;28;20036;-81
2022/03/04 01:08:18;;;;;;;37.50;14.57;;;-0.80;99.90;;;;;;5077463;28;20039;-82
2022/03/04 01:10:47;;;;;;;45.47;15.50;;;-0.60;99.90;;;;;;5077486;28;20457;-81
2022/03/04 01:13:13;;;;;;;39.67;16.27;;;-0.60;99.90;;;;;;5077520;28;20093;-81
2022/03/04 01:15:39;;;;;;;44.25;16.48;;;-0.70;99.90;;;;;;5077272;28;20040;-80
2022/03/04 01:18:05;;;;;;;40.08;14.88;;;-0.80;99.90;;;;;;5077138;28;20043;-80
2022/03/04 01:20:33;;;;;;;41.92;18.20;;;-0.70;99.90;;;;;;5076897;28;20070;-81
2022/03/04 01:23:00;;;;;;;49.72;17.85;;;0.00;99.90;;;;;;5077238;28;20086;-81
2022/03/04 01:25:26;;;;;;;48.08;18.48;;;-0.70;99.90;;;;;;5077454;28;20395;-81
2022/03/04 01:27:51;;;;;;;47.17;17.05;;;-0.90;99.90;;;;;;5077649;28;20504;-81
2022/03/04 01:30:18;;;;;;;43.78;16.90;;;-1.00;99.90;;;;;;5077165;28;20048;-81
2022/03/04 01:32:45;;;;;;;43.15;16.30;;;-1.00;99.90;;;;;;5077466;28;20044;-81
2022/03/04 01:35:11;;;;;;;45.97;17.88;;;-1.10;99.90;;;;;;5077837;28;20056;-81
2022/03/04 01:37:38;;;;;;;45.85;17.05;;;-1.20;99.90;;;;;;5077644;28;20037;-82
2022/03/04 01:40:06;;;;;;;61.47;19.40;;;-1.10;99.90;;;;;;5057679;28;20100;-82
2022/03/04 01:42:34;;;;;;;52.90;19.13;;;-1.20;99.90;;;;;;5056440;28;20049;-82
2022/03/04 01:45:00;;;;;;;53.00;20.42;;;-1.20;99.90;;;;;;5056733;28;20394;-81
2022/03/04 01:47:26;;;;;;;55.40;19.33;;;-1.20;99.90;;;;;;5068468;28;20112;-80
2022/03/04 01:49:52;;;;;;;52.05;16.80;;;-1.20;99.90;;;;;;5076180;28;20102;-83
2022/03/04 01:52:18;;;;;;;59.65;20.95;;;-1.30;99.90;;;;;;5075718;28;20062;-82
2022/03/04 01:54:43;;;;;;;61.45;21.02;;;-1.30;99.90;;;;;;5076225;28;20040;-82
2022/03/04 01:57:09;;;;;;;52.88;19.17;;;-1.20;99.90;;;;;;5075929;28;20125;-81
2022/03/04 01:59:35;;;;;;;65.05;20.90;;;-1.20;99.90;;;;;;5075918;28;20040;-81
2022/03/04 02:02:01;;;;;;;58.83;17.92;;;-1.30;99.90;;;;;;5076495;28;20475;-82
2022/03/04 02:04:27;;;;;;;62.70;19.40;;;-1.30;99.90;;;;;;5076318;28;20048;-82
2022/03/04 02:06:53;;;;;;;57.55;17.75;;;-1.30;99.90;;;;;;5054655;28;20072;-81
2022/03/04 02:09:19;;;;;;;59.20;20.63;;;-1.30;99.90;;;;;;5068549;28;20449;-81
2022/03/04 02:11:45;;;;;;;58.60;20.85;;;-1.10;99.90;;;;;;5076567;28;20102;-82
2022/03/04 02:14:11;;;;;;;65.47;20.30;;;-1.40;99.90;;;;;;5076109;28;20120;-81
2022/03/04 02:16:42;;;;;;;66.80;21.55;;;-2.20;99.90;;;;;;5075934;28;20136;-82
2022/03/04 02:19:07;;;;;;;64.15;20.33;;;-1.50;99.90;;;;;;5057236;28;20068;-81
2022/03/04 02:21:34;;;;;;;74.30;21.23;;;-1.50;99.90;;;;;;5075078;28;20074;-82
2022/03/04 02:24:00;;;;;;;79.78;23.65;;;-1.50;99.90;;;;;;5075624;28;20040;-81
2022/03/04 02:26:26;;;;;;;64.88;20.77;;;-1.60;99.90;;;;;;5057612;28;20044;-82
2022/03/04 02:28:52;;;;;;;68.85;21.85;;;-1.60;99.90;;;;;;5075669;28;20043;-82
2022/03/04 02:31:20;;;;;;;78.15;23.00;;;-1.50;99.90;;;;;;5075787;28;20044;-82
2022/03/04 02:33:47;;;;;;;69.88;21.25;;;-1.60;99.90;;;;;;5075138;28;20084;-83
2022/03/04 02:36:14;;;;;;;77.72;23.10;;;-1.70;99.90;;;;;;5075433;28;20090;-82
2022/03/04 02:38:39;;;;;;;68.85;21.35;;;-1.80;99.90;;;;;;5075258;28;20041;-82
2022/03/04 02:41:05;;;;;;;77.65;23.00;;;-1.80;99.90;;;;;;5075331;28;20036;-81
2022/03/04 02:43:31;;;;;;;72.03;21.77;;;-1.90;99.90;;;;;;5212637;22;20056;-82
2022/03/04 02:45:57;;;;;;;86.63;21.75;;;-1.90;99.90;;;;;;5044577;28;20491;-82
2022/03/04 02:48:23;;;;;;;76.32;21.92;;;-1.90;99.90;;;;;;5049334;28;20044;-84
2022/03/04 02:50:48;;;;;;;71.63;23.50;;;-1.90;99.90;;;;;;5039616;28;20044;-84
2022/03/04 02:53:14;;;;;;;69.07;20.48;;;-1.80;99.90;;;;;;5072326;28;20044;-82
2022/03/04 02:55:40;;;;;;;82.40;25.25;;;-1.70;99.90;;;;;;5046176;28;20167;-82
2022/03/04 02:58:05;;;;;;;62.92;21.77;;;-1.60;99.90;;;;;;5054883;28;20049;-82
2022/03/04 03:00:32;;;;;;;74.57;23.17;;;-1.60;99.90;;;;;;5065396;28;20041;-82
2022/03/04 03:02:58;;;;;;;67.78;21.60;;;-1.60;99.90;;;;;;5053365;28;20049;-82
2022/03/04 03:05:24;;;;;;;61.28;21.88;;;-1.60;99.90;;;;;;5068840;28;20052;-82
2022/03/04 03:07:49;;;;;;;70.28;22.23;;;-1.50;99.90;;;;;;5040541;28;20048;-82
2022/03/04 03:10:15;;;;;;;77.55;23.55;;;-0.80;99.90;;;;;;5056416;28;20076;-82
2022/03/04 03:12:42;;;;;;;64.90;21.33;;;-1.40;99.90;;;;;;5040014;28;20044;-82
2022/03/04 03:15:08;;;;;;;78.80;22.42;;;-1.40;99.90;;;;;;5074438;28;20033;-81
2022/03/04 03:17:34;;;;;;;74.90;22.20;;;-1.30;99.90;;;;;;5056319;28;20075;-82
2022/03/04 03:20:00;;;;;;;78.30;23.42;;;-1.30;99.90;;;;;;5073940;28;20044;-81
2022/03/04 03:22:26;;;;;;;65.85;22.13;;;-1.40;99.90;;;;;;5039714;28;20045;-83
2022/03/04 03:24:52;;;;;;;51.00;19.63;;;-1.30;99.90;;;;;;5075699;28;20052;-83
2022/03/04 03:27:17;;;;;;;51.47;19.92;;;-1.20;99.90;;;;;;5073280;28;20032;-83
2022/03/04 03:29:43;;;;;;;68.75;21.55;;;-1.10;99.90;;;;;;5056167;28;20044;-83
2022/03/04 03:32:10;;;;;;;51.72;18.25;;;-1.00;99.90;;;;;;5055513;28;20060;-83
2022/03/04 03:34:36;;;;;;;64.75;23.83;;;-1.00;99.90;;;;;;5039053;28;20037;-83
2022/03/04 03:37:03;;;;;;;69.25;22.40;;;-0.60;99.90;;;;;;5074346;28;20045;-83
2022/03/04 03:39:28;;;;;;;68.38;20.88;;;-1.00;99.90;;;;;;5055707;28;20083;-83
2022/03/04 03:41:54;;;;;;;56.17;19.70;;;-1.00;99.90;;;;;;5056204;28;20045;-82
2022/03/04 03:44:20;;;;;;;74.38;22.50;;;-1.00;99.90;;;;;;5085249;28;20052;-83
2022/03/04 03:46:45;;;;;;;74.05;22.55;;;-1.00;99.90;;;;;;5072574;28;20059;-83
2022/03/04 03:49:11;;;;;;;84.30;26.60;;;-1.00;99.90;;;;;;5073577;28;20759;-83
2022/03/04 03:51:37;;;;;;;50.75;17.55;;;-0.70;99.90;;;;;;5069190;28;20550;-83
2022/03/04 03:54:03;;;;;;;78.85;24.23;;;-0.60;99.90;;;;;;5068410;28;20119;-84
2022/03/04 03:56:28;;;;;;;69.95;24.70;;;-1.00;99.90;;;;;;5052940;28;20045;-84
2022/03/04 03:58:54;;;;;;;76.70;27.23;;;-1.00;99.90;;;;;;5036521;28;20041;-84
2022/03/04 04:01:22;;;;;;;88.25;27.67;;;-1.00;99.90;;;;;;5052860;28;20087;-84
2022/03/04 04:03:48;;;;;;;46.95;15.40;;;-0.50;99.90;;;;;;5036110;28;20080;-83
2022/03/04 04:06:14;;;;;;;60.65;20.05;;;-1.10;99.90;;;;;;5056504;28;20119;-83
2022/03/04 04:08:40;;;;;;;79.32;22.42;;;-1.10;99.90;;;;;;5060006;28;20111;-84
2022/03/04 04:11:06;;;;;;;85.10;24.92;;;-1.10;99.90;;;;;;5056157;28;20119;-83
2022/03/04 04:13:31;;;;;;;89.10;27.10;;;-1.10;99.90;;;;;;5071603;28;20044;-83
2022/03/04 04:15:57;;;;;;;73.82;21.38;;;-1.10;99.90;;;;;;5075957;28;20204;-83
2022/03/04 04:18:22;;;;;;;84.13;25.35;;;-1.10;99.90;;;;;;5076665;28;20033;-83
2022/03/04 04:20:48;;;;;;;89.82;28.45;;;-1.10;99.90;;;;;;5076197;28;20094;-83
2022/03/04 04:23:14;;;;;;;77.13;24.23;;;-1.10;99.90;;;;;;5059743;28;20454;-83
2022/03/04 04:25:39;;;;;;;76.78;24.73;;;-1.10;99.90;;;;;;5060003;28;20049;-83
2022/03/04 04:28:05;;;;;;;93.30;26.25;;;-1.00;99.90;;;;;;5077588;28;20044;-83
2022/03/04 04:30:31;;;;;;;77.95;24.17;;;-1.00;99.90;;;;;;5044544;28;20128;-83
2022/03/04 04:32:57;;;;;;;83.80;23.23;;;-1.00;99.90;;;;;;5039580;28;20036;-83
2022/03/04 04:35:22;;;;;;;64.13;22.75;;;-1.00;99.90;;;;;;5056113;28;20568;-83
2022/03/04 04:37:48;;;;;;;74.13;26.15;;;-1.00;99.90;;;;;;5040254;28;20064;-83
2022/03/04 04:40:13;;;;;;;69.07;20.80;;;-1.00;99.90;;;;;;5052720;28;20044;-83
2022/03/04 04:42:39;;;;;;;78.88;24.67;;;-1.00;99.90;;;;;;5060214;28;20048;-83
2022/03/04 04:45:06;;;;;;;69.85;24.75;;;-0.70;99.90;;;;;;5093904;28;20045;-83
2022/03/04 04:47:31;;;;;;;44.47;14.77;;;-1.00;99.90;;;;;;5059553;28;20067;-83
2022/03/04 04:49:57;;;;;;;73.20;22.33;;;-0.60;99.90;;;;;;5092572;28;20057;-83
2022/03/04 04:52:23;;;;;;;89.43;27.23;;;-0.70;99.90;;;;;;5076529;28;20050;-83
2022/03/04 04:54:48;;;;;;;79.07;24.50;;;-0.90;99.90;;;;;;5059190;28;20045;-83
2022/03/04 04:57:14;;;;;;;69.38;21.75;;;-0.90;99.90;;;;;;5059104;28;20441;-83
2022/03/04 04:59:39;;;;;;;79.22;24.33;;;-0.20;99.90;;;;;;5076869;28;20040;-83
2022/03/04 05:02:05;;;;;;;83.03;24.10;;;-0.90;99.90;;;;;;5059121;28;20087;-83
2022/03/04 05:04:31;;;;;;;65.18;21.77;;;-0.90;99.90;;;;;;5059936;28;20070;-83
2022/03/04 05:06:56;;;;;;;67.38;23.60;;;-0.80;99.90;;;;;;5075866;28;20040;-83
2022/03/04 05:09:22;;;;;;;85.35;29.83;;;-0.80;99.90;;;;;;5075361;28;20047;-83
2022/03/04 05:11:48;;;;;;;63.63;24.10;;;-0.40;99.90;;;;;;5058952;28;20036;-83
2022/03/04 05:14:13;;;;;;;70.97;22.60;;;-0.80;99.90;;;;;;5059106;28;20483;-83
2022/03/04 05:16:39;;;;;;;88.65;28.40;;;-0.70;99.90;;;;;;5092733;28;20045;-83
2022/03/04 05:19:05;;;;;;;83.63;26.88;;;-0.60;99.90;;;;;;5075999;28;20041;-83
2022/03/04 05:21:30;;;;;;;45.88;18.10;;;-0.80;99.90;;;;;;5074945;28;20045;-83
2022/03/04 05:23:59;;;;;;;71.60;24.08;;;-0.80;99.90;;;;;;5075637;28;20044;-83
2022/03/04 05:26:35;;;;;;;74.90;28.70;;;-0.70;99.90;;;;;;5090887;28;20076;-84
2022/03/04 05:29:03;;;;;;;72.05;23.52;;;-0.80;99.90;;;;;;5075851;28;20104;-83
2022/03/04 05:31:28;;;;;;;57.22;22.58;;;-0.40;99.90;;;;;;5092170;28;20063;-83
2022/03/04 05:33:55;;;;;;;51.30;19.13;;;-0.80;99.90;;;;;;5066399;28;20052;-83
2022/03/04 05:36:21;;;;;;;70.45;26.95;;;-0.60;99.90;;;;;;5091731;28;20072;-83
2022/03/04 05:38:48;;;;;;;60.05;23.23;;;-0.90;99.90;;;;;;5075807;28;20047;-83
2022/03/04 05:41:15;;;;;;;65.80;23.23;;;-0.90;99.90;;;;;;5075497;28;20033;-83
2022/03/04 05:43:41;;;;;;;54.45;19.75;;;-0.30;99.90;;;;;;5057932;28;20095;-83
2022/03/04 05:46:06;;;;;;;63.78;21.95;;;-0.50;99.90;;;;;;5058361;28;21085;-83
2022/03/04 05:48:32;;;;;;;67.38;23.08;;;-0.60;99.90;;;;;;5074400;28;20051;-83
2022/03/04 05:50:58;;;;;;;65.18;23.58;;;-0.90;99.90;;;;;;5074875;28;20040;-83
2022/03/04 05:53:23;;;;;;;63.35;22.85;;;-0.60;99.90;;;;;;5074408;28;20047;-83
2022/03/04 05:55:49;;;;;;;72.25;25.00;;;-0.90;99.90;;;;;;5057495;28;20051;-83
2022/03/04 05:58:15;;;;;;;83.30;27.08;;;-0.60;99.90;;;;;;5052891;28;20045;-83
2022/03/04 06:00:40;;;;;;;74.97;24.67;;;-0.40;99.90;;;;;;5034785;28;20055;-83
2022/03/04 06:03:07;;;;;;;79.18;28.20;;;-0.70;99.90;;;;;;5034784;28;20049;-83
2022/03/04 06:05:33;;;;;;;66.53;25.00;;;-0.90;99.90;;;;;;5056693;28;20037;-83
2022/03/04 06:07:59;;;;;;;60.13;23.40;;;-0.90;99.90;;;;;;5071482;28;20563;-83
2022/03/04 06:10:25;;;;;;;46.38;18.67;;;-0.80;99.90;;;;;;5071844;28;20048;-83
2022/03/04 06:12:50;;;;;;;65.32;22.67;;;-1.00;99.90;;;;;;5071383;28;20086;-83
2022/03/04 06:15:16;;;;;;;66.50;23.30;;;-0.90;99.90;;;;;;5052933;28;20087;-83
2022/03/04 06:17:49;;;;;;;67.70;24.85;;;-1.00;99.90;;;;;;5053205;28;20051;-83
2022/03/04 06:20:16;;;;;;;51.80;19.38;;;-0.90;99.90;;;;;;5057240;28;20048;-83
2022/03/04 06:22:42;;;;;;;46.20;19.23;;;-0.70;99.90;;;;;;5058029;28;20402;-83
2022/03/04 06:25:09;;;;;;;60.42;21.02;;;-0.70;99.90;;;;;;5058130;28;20049;-83
2022/03/04 06:27:35;;;;;;;82.82;28.02;;;-1.00;99.90;;;;;;5075815;28;20048;-84
2022/03/04 06:30:00;;;;;;;54.65;20.25;;;-0.60;99.90;;;;;;5059007;28;20487;-83
2022/03/04 06:32:26;;;;;;;53.13;21.92;;;-0.50;99.90;;;;;;5074512;28;20395;-83
2022/03/04 06:34:51;;;;;;;54.80;23.30;;;-0.30;99.90;;;;;;5075162;28;20041;-83
2022/03/04 06:37:17;;;;;;;62.20;22.77;;;-1.00;99.90;;;;;;5057747;28;20430;-83
2022/03/04 06:39:42;;;;;;;49.92;20.33;;;-0.80;99.90;;;;;;5079203;28;20051;-83
2022/03/04 06:42:08;;;;;;;62.92;21.20;;;-0.90;99.90;;;;;;5081538;28;20045;-83
2022/03/04 06:44:34;;;;;;;64.30;22.48;;;-0.90;99.90;;;;;;5081840;28;20048;-83
2022/03/04 06:46:59;;;;;;;51.30;20.67;;;-0.40;99.90;;;;;;5098739;28;20128;-83
2022/03/04 06:49:25;;;;;;;51.08;21.23;;;-0.40;99.90;;;;;;5063143;28;20144;-83
2022/03/04 06:51:50;;;;;;;46.22;18.98;;;-0.90;99.90;;;;;;5058806;28;20084;-83
2022/03/04 06:54:16;;;;;;;59.78;22.35;;;-0.70;99.90;;;;;;5074156;28;20457;-84
2022/03/04 06:56:41;;;;;;;46.75;19.38;;;-0.40;99.90;;;;;;5057623;28;20044;-83
2022/03/04 06:59:07;;;;;;;40.28;16.55;;;-0.50;99.90;;;;;;5072670;28;20082;-83
2022/03/04 07:01:33;;;;;;;38.35;17.00;;;-0.90;99.90;;;;;;5074577;28;20044;-83
2022/03/04 07:03:58;;;;;;;37.28;16.48;;;-0.30;99.90;;;;;;5073756;28;20083;-83
2022/03/04 07:06:24;;;;;;;40.00;15.68;;;-0.90;99.90;;;;;;5056866;28;20044;-83
2022/03/04 07:08:49;;;;;;;36.35;16.63;;;-0.80;99.90;;;;;;5056824;28;20036;-83
2022/03/04 07:11:15;;;;;;;39.28;19.10;;;-0.30;99.90;;;;;;5073223;28;20145;-83
2022/03/04 07:13:40;;;;;;;48.40;20.30;;;-0.30;99.90;;;;;;5056245;28;20407;-83
2022/03/04 07:16:06;;;;;;;51.03;19.83;;;-0.50;99.90;;;;;;5073177;28;20071;-83
2022/03/04 07:18:32;;;;;;;50.65;22.20;;;-0.10;99.90;;;;;;5074221;28;20406;-83
2022/03/04 07:21:01;;;;;;;53.35;20.83;;;-0.70;99.90;;;;;;5056154;28;20131;-83
2022/03/04 07:23:27;;;;;;;40.22;15.57;;;-0.70;99.90;;;;;;5073524;28;20114;-83
2022/03/04 07:25:53;;;;;;;41.97;19.17;;;-0.40;99.90;;;;;;5056208;28;20048;-83
2022/03/04 07:28:19;;;;;;;36.25;16.30;;;-0.40;99.90;;;;;;5056262;28;20076;-83
2022/03/04 07:30:44;;;;;;;36.03;17.17;;;0.00;99.90;;;;;;5073962;28;20406;-83
2022/03/04 07:33:10;;;;;;;39.88;17.52;;;-0.60;99.90;;;;;;5073825;28;20115;-83
2022/03/04 07:35:39;;;;;;;48.78;19.70;;;-0.60;99.90;;;;;;5055880;28;20483;-83
2022/03/04 07:38:05;;;;;;;43.15;18.58;;;0.10;99.90;;;;;;5055736;28;20055;-83
2022/03/04 07:40:30;;;;;;;40.67;18.77;;;-0.50;99.90;;;;;;5072188;28;20049;-83
2022/03/04 07:42:58;;;;;;;36.47;15.38;;;-0.20;99.90;;;;;;5072396;28;20045;-83
2022/03/04 07:45:24;;;;;;;28.98;14.68;;;-0.60;99.90;;;;;;5089371;28;20044;-83
2022/03/04 07:47:49;;;;;;;48.40;22.10;;;-0.60;99.90;;;;;;5073643;28;20052;-83
2022/03/04 07:50:16;;;;;;;46.60;20.40;;;0.20;99.90;;;;;;5088277;28;20040;-83
2022/03/04 07:52:43;;;;;;;53.25;22.23;;;-0.40;99.90;;;;;;5055749;28;20125;-83
2022/03/04 07:55:12;;;;;;;47.00;20.85;;;-0.50;99.90;;;;;;5072305;28;20041;-83
2022/03/04 07:57:37;;;;;;;54.58;20.95;;;-0.50;99.90;;;;;;5073408;28;20067;-84
2022/03/04 08:00:06;;;;;;;46.08;18.83;;;-0.30;99.90;;;;;;5073079;28;20430;-82
2022/03/04 08:02:32;;;;;;;51.80;20.52;;;-0.20;99.90;;;;;;5053012;28;20072;-83
2022/03/04 08:04:57;;;;;;;47.85;20.98;;;-0.10;99.90;;;;;;5069110;28;20075;-83
2022/03/04 08:07:23;;;;;;;47.88;21.08;;;0.40;99.90;;;;;;5070516;28;20041;-83
2022/03/04 08:09:48;;;;;;;41.65;18.00;;;-0.10;99.90;;;;;;5070591;28;20041;-82
2022/03/04 08:12:14;;;;;;;44.50;18.95;;;0.60;99.90;;;;;;5070794;28;20040;-82
2022/03/04 08:14:40;;;;;;;41.80;18.92;;;0.10;99.90;;;;;;5069909;28;20037;-83
2022/03/04 08:17:06;;;;;;;42.30;19.67;;;0.10;99.90;;;;;;5060445;28;20080;-83
2022/03/04 08:19:33;;;;;;;41.22;18.23;;;0.50;99.90;;;;;;5057861;28;20045;-83
2022/03/04 08:21:58;;;;;;;48.53;21.98;;;0.30;99.90;;;;;;5056526;28;20049;-83
2022/03/04 08:24:24;;;;;;;45.97;21.13;;;0.80;99.90;;;;;;5067594;28;20372;-83
2022/03/04 08:26:50;;;;;;;46.83;23.15;;;0.30;99.90;;;;;;5069570;28;20379;-83
2022/03/04 08:29:16;;;;;;;40.83;20.50;;;0.30;99.90;;;;;;5069397;28;20048;-83
2022/03/04 08:31:41;;;;;;;44.08;21.00;;;1.00;99.90;;;;;;5069107;28;20403;-83
2022/03/04 08:34:08;;;;;;;35.97;17.45;;;1.10;99.90;;;;;;5052215;28;20406;-83
2022/03/04 08:36:35;;;;;;;40.35;19.98;;;0.60;99.90;;;;;;5070541;28;20045;-83
2022/03/04 08:39:03;;;;;;;36.78;19.42;;;0.90;99.90;;;;;;5060324;28;20107;-83
2022/03/04 08:41:29;;;;;;;31.92;17.00;;;1.70;99.90;;;;;;5060460;28;20048;-83
2022/03/04 08:43:55;;;;;;;31.60;16.05;;;1.00;99.90;;;;;;5059005;28;20425;-83
2022/03/04 08:46:21;;;;;;;36.50;17.88;;;1.60;99.90;;;;;;5059575;28;20448;-83
2022/03/04 08:48:47;;;;;;;36.25;16.98;;;1.30;99.90;;;;;;5070339;28;20506;-83
2022/03/04 08:51:12;;;;;;;35.85;17.10;;;1.80;99.90;;;;;;5069538;28;20102;-83
2022/03/04 08:53:38;;;;;;;28.23;16.27;;;1.90;99.90;;;;;;5069894;28;20569;-83
2022/03/04 08:56:04;;;;;;;31.35;16.52;;;1.20;99.90;;;;;;5069547;28;20088;-83
2022/03/04 08:58:30;;;;;;;28.88;16.13;;;1.10;99.90;;;;;;5071053;28;20045;-83
2022/03/04 09:00:56;;;;;;;32.50;17.27;;;0.90;99.90;;;;;;5070859;28;20052;-83
2022/03/04 09:03:22;;;;;;;30.33;15.75;;;1.20;99.90;;;;;;5089445;28;20044;-84
2022/03/04 09:05:48;;;;;;;32.65;17.63;;;1.30;99.90;;;;;;5074611;28;20512;-84
2022/03/04 09:08:14;;;;;;;36.88;17.77;;;1.10;99.90;;;;;;5073263;28;20127;-83
2022/03/04 09:10:40;;;;;;;36.65;19.13;;;1.40;99.90;;;;;;5073513;28;20090;-83
2022/03/04 09:13:06;;;;;;;33.78;15.80;;;1.00;99.90;;;;;;5057579;28;20106;-83
2022/03/04 09:15:37;;;;;;;33.40;16.45;;;1.40;99.90;;;;;;5057056;28;20051;-83
2022/03/04 09:18:02;;;;;;;32.58;16.75;;;1.50;99.90;;;;;;5057103;28;20052;-83
2022/03/04 09:20:28;;;;;;;31.42;17.02;;;1.70;99.90;;;;;;5074355;28;20041;-83
2022/03/04 09:22:55;;;;;;;32.35;17.40;;;2.00;99.90;;;;;;5073290;28;20064;-83
2022/03/04 09:25:22;;;;;;;38.00;16.77;;;2.20;99.90;;;;;;5057128;28;20430;-83
2022/03/04 09:27:49;;;;;;;38.28;18.20;;;2.30;99.90;;;;;;5056387;28;20072;-83
2022/03/04 09:30:16;;;;;;;35.95;17.33;;;2.20;99.90;;;;;;5056797;28;20057;-83
2022/03/04 09:32:41;;;;;;;35.63;16.05;;;2.30;99.90;;;;;;5073153;28;20048;-83
2022/03/04 09:35:07;;;;;;;30.45;15.60;;;2.10;99.90;;;;;;5074526;28;20045;-83
2022/03/04 09:37:34;;;;;;;27.80;15.52;;;2.10;99.90;;;;;;5051908;28;20503;-83
2022/03/04 09:40:00;;;;;;;29.25;15.73;;;1.80;99.90;;;;;;5052945;28;20048;-83
2022/03/04 09:42:26;;;;;;;29.60;15.23;;;2.00;99.90;;;;;;5052769;28;20041;-83
2022/03/04 09:44:52;;;;;;;32.15;17.13;;;2.10;99.90;;;;;;5064689;28;20099;-83
2022/03/04 09:47:22;;;;;;;32.38;17.67;;;2.30;99.90;;;;;;5056014;28;20084;-83
2022/03/04 09:49:51;;;;;;;31.08;16.73;;;2.20;99.90;;;;;;5072486;28;20040;-83
2022/03/04 09:52:17;;;;;;;31.50;14.57;;;1.90;99.90;;;;;;5072826;28;20040;-83
2022/03/04 09:54:51;;;;;;;30.30;15.45;;;1.90;99.90;;;;;;5055737;28;20441;-83
2022/03/04 09:57:18;;;;;;;28.65;15.13;;;1.90;99.90;;;;;;5055958;28;20045;-83
2022/03/04 09:59:44;;;;;;;29.98;16.27;;;1.60;99.90;;;;;;5074175;28;20074;-84
2022/03/04 10:02:13;;;;;;;35.42;18.23;;;1.50;99.90;;;;;;5058573;28;20119;-83
2022/03/04 10:04:42;;;;;;;29.73;16.27;;;1.40;99.90;;;;;;5039301;28;20056;-83
2022/03/04 10:07:16;;;;;;;30.85;15.05;;;1.50;99.90;;;;;;5072897;28;20516;-83
2022/03/04 10:09:47;;;;;;;34.50;16.42;;;1.50;99.90;;;;;;5073388;28;20052;-83
2022/03/04 10:12:15;;;;;;;33.92;17.92;;;1.60;99.90;;;;;;5056495;28;20097;-83
2022/03/04 10:15:03;;;;;;;31.38;14.88;;;1.90;99.90;;;;;;5057627;28;20127;-83
2022/03/04 10:17:31;;;;;;;28.00;14.25;;;1.90;99.90;;;;;;5073078;28;20052;-83
2022/03/04 10:20:08;;;;;;;25.75;13.32;;;2.10;99.90;;;;;;5073038;28;20059;-82
2022/03/04 10:22:42;;;;;;;31.88;16.40;;;2.40;99.90;;;;;;5056361;28;20410;-83
2022/03/04 10:25:23;;;;;;;30.48;16.10;;;2.40;99.90;;;;;;5073618;28;20079;-83
2022/03/04 10:27:50;;;;;;;34.05;18.15;;;2.50;99.90;;;;;;5057191;28;20047;-83
2022/03/04 10:30:17;;;;;;;29.23;17.02;;;2.80;99.90;;;;;;5056163;28;20499;-83
2022/03/04 10:32:43;;;;;;;26.48;13.90;;;3.10;99.90;;;;;;5055002;28;20052;-83
2022/03/04 10:35:10;;;;;;;26.23;15.55;;;3.10;99.90;;;;;;5055620;28;20033;-83
2022/03/04 10:37:56;;;;;;;28.48;16.65;;;3.40;99.90;;;;;;5045776;28;20044;-83
2022/03/04 10:40:43;;;;;;;26.25;16.33;;;3.70;99.90;;;;;;5052240;28;20049;-84
2022/03/04 10:43:10;;;;;;;24.73;15.55;;;3.80;99.90;;;;;;5036302;28;20079;-84
2022/03/04 10:45:43;;;;;;;27.20;15.68;;;4.00;99.90;;;;;;5056152;28;20044;-84
2022/03/04 10:48:10;;;;;;;27.00;16.77;;;4.10;99.90;;;;;;5055688;28;20048;-84
2022/03/04 10:50:42;;;;;;;28.02;16.55;;;4.50;99.90;;;;;;5055551;28;20154;-85
2022/03/04 10:53:08;;;;;;;25.70;16.50;;;4.40;99.90;;;;;;5072333;28;20055;-84
2022/03/04 10:55:36;;;;;;;24.92;16.40;;;4.50;99.90;;;;;;5071676;28;20070;-84
2022/03/04 10:58:05;;;;;;;24.52;14.60;;;4.40;99.90;;;;;;5055165;28;20048;-84
2022/03/04 11:00:36;;;;;;;25.33;16.40;;;4.80;99.90;;;;;;5056293;28;20064;-84
2022/03/04 11:03:03;;;;;;;26.00;15.43;;;4.80;99.90;;;;;;5046374;28;20059;-84
2022/03/04 11:05:29;;;;;;;25.52;14.93;;;4.70;99.90;;;;;;5053132;28;20087;-84
2022/03/04 11:07:55;;;;;;;23.75;14.90;;;4.90;99.90;;;;;;5035027;28;20068;-84
2022/03/04 11:10:21;;;;;;;21.83;14.07;;;5.30;99.90;;;;;;5034941;28;20048;-85
2022/03/04 11:12:53;;;;;;;23.73;14.85;;;5.40;99.90;;;;;;5059300;28;20087;-84
2022/03/04 11:15:20;;;;;;;23.65;15.63;;;5.40;99.90;;;;;;5065645;28;20048;-85
2022/03/04 11:17:47;;;;;;;22.98;15.07;;;5.00;99.90;;;;;;5043532;28;20033;-84
2022/03/04 11:20:14;;;;;;;25.48;14.60;;;5.40;99.90;;;;;;5043815;28;20353;-85
2022/03/04 11:22:41;;;;;;;22.60;14.65;;;5.80;99.90;;;;;;5062416;28;20049;-85
2022/03/04 11:25:13;;;;;;;23.00;15.73;;;5.90;99.90;;;;;;5061743;28;20056;-84
2022/03/04 11:27:45;;;;;;;21.10;12.63;;;6.00;99.90;;;;;;5059842;28;20072;-84
2022/03/04 11:30:38;;;;;;;23.40;14.60;;;6.00;99.90;;;;;;5051801;28;20415;-84
2022/03/04 11:33:20;;;;;;;19.80;12.73;;;6.40;99.90;;;;;;5051112;28;20490;-85
2022/03/04 11:35:58;;;;;;;24.48;15.18;;;6.50;99.90;;;;;;5034982;28;20123;-84
2022/03/04 11:38:46;;;;;;;24.67;13.50;;;6.50;99.90;;;;;;5051438;28;20048;-84
2022/03/04 11:41:19;;;;;;;20.55;13.57;;;6.60;99.90;;;;;;5051400;28;20045;-85
2022/03/04 11:43:51;;;;;;;19.70;12.85;;;6.60;99.90;;;;;;5034589;28;20061;-85
2022/03/04 11:46:22;;;;;;;18.63;11.63;;;6.60;99.90;;;;;;5051187;28;20067;-85
2022/03/04 11:49:08;;;;;;;22.83;13.52;;;6.40;99.90;;;;;;5050368;28;20107;-85
2022/03/04 11:51:33;;;;;;;21.07;12.73;;;6.50;99.90;;;;;;5034849;28;20059;-84
2022/03/04 11:54:25;;;;;;;21.38;12.32;;;6.60;99.90;;;;;;5050719;28;20398;-85
2022/03/04 11:56:52;;;;;;;20.95;12.77;;;6.70;99.90;;;;;;5051322;28;20045;-85
2022/03/04 11:59:19;;;;;;;19.95;11.80;;;7.00;99.90;;;;;;5034130;28;20057;-84
2022/03/04 12:01:46;;;;;;;19.25;12.05;;;7.30;99.90;;;;;;5050281;28;20045;-84
2022/03/04 12:04:16;;;;;;;19.05;11.48;;;7.50;99.90;;;;;;5052418;28;20051;-84
2022/03/04 12:06:43;;;;;;;19.85;13.23;;;7.30;99.90;;;;;;5034099;28;20193;-85
2022/03/04 12:09:23;;;;;;;17.02;10.85;;;7.30;99.90;;;;;;5050492;28;20095;-85
2022/03/04 12:12:16;;;;;;;21.45;11.73;;;7.40;99.90;;;;;;5034136;28;20057;-85
2022/03/04 12:14:48;;;;;;;22.27;12.27;;;7.50;99.90;;;;;;5065110;28;20048;-84
2022/03/04 12:17:15;;;;;;;20.95;12.60;;;7.60;99.90;;;;;;5070762;28;20067;-83
2022/03/04 12:19:41;;;;;;;19.27;11.23;;;7.50;99.90;;;;;;5070957;28;20044;-85
2022/03/04 12:22:07;;;;;;;18.08;11.88;;;7.70;99.90;;;;;;5071124;28;20532;-82
2022/03/04 12:24:36;;;;;;;20.42;11.35;;;7.70;99.90;;;;;;5054596;28;20125;-83
2022/03/04 12:27:03;;;;;;;19.40;10.45;;;7.80;99.90;;;;;;5091934;28;20426;-82
2022/03/04 12:29:45;;;;;;;16.55;10.27;;;7.80;99.90;;;;;;5073886;28;20055;-83
2022/03/04 12:32:12;;;;;;;19.83;11.20;;;8.00;99.90;;;;;;5074391;28;20533;-82